Scroll down
FLIGHT INFORMATION
PMDG Flight Operations

PFO1029

At Arrival Gate

KBOS
 KLAX
DATE: 2018-10-29
GATE:  -
GATE DEPARTURE: 19:00
TAKEOFF: 19:17
DATE: 2018-10-30
GATE: 159
LANDING: 00:47
GATE ARRIVAL: 00:52
FLIGHT DATA
Crew: 
Speed: 
518 kts
Altitude: 
38,041 ft
Stage Length: 
2,264.0 nm
Block Time: 
5.9 hrs
Flight Time: 
5.5 hrs
Fuel Used: 
119,848 lb
Cleared Route: TJAYY BOATT HEARR MARBB HYLND HANAA ARNII GOATR AHPAH KELTI AGDOX OMRAK HOCKE BAE DBQ CAPPR JORDY TODDO OBH DVV DVC PEEWE EEEZY DUZIT LAKRR ZZYZX HAKMN SHTNR SMASH SALYY GLESN ANJLL CAANN BOYEL CRCUS
TRACK DATA
50,000 ft 1,000 kts
AIRCRAFT INFO AND CUMULATIVE STATS
Aircraft Type: 
B744M
Registration: 
SELCAL: 
MSN/LN: 
0 / 2
Total Flights: 
3
Total Block Time: 
11.6 hrs
Total Flight Time: 
10.6 hrs
Total Fuel Time: 
230,558 lb
DATALINK LOG | Newest first | Current as of: 2020-11-27 19:39:02
LABEL SEQUENCE CONTENT Dn/Up
QD524400:52 38.6▼ Dn
QC470500:47▼ Dn
2U3220KLAX 292353Z 27008KT 10SM FEW008 FEW250 19/15 A2993 RMK AO2 SLP133 T01940150 10200 20183 56008▲ Up
2S3012KLAX▼ Dn
GA5443GATE 159▲ Up
GR5229KLAX▼ Dn
QB171019:17▼ Dn
QA000519:00 158.4▼ Dn
2U5457KBOS 291834Z 26008G16KT 10SM -RA BKN019 BKN070 BKN200 13/09 A2966 RMK AO2 RAE1759B20 P0001 T01330094 $▲ Up
2S5251KBOS▼ Dn


AIRCRAFT HISTORY
FLIGHT DATE FLIGHT NO. ORIGIN DESTINATION CLEARED ROUTE BLOCK TIME FLIGHT TIME FUEL USED PILOT
2018-12-22PFO1222KLAX KIAD SLI TUSTI HEMET TRM PKE ABQ KK36A EOS ESTEE HVQ FIMPA WOJOW BURTT PHOOW HESEE GYSLO BBONE KILMR OTTTO MAAAY RYPIN GIBBZ SUNYJ UDIYU MATTC4.2 hrs3.9 hrs80,324 lbKyle Rodgers
2018-10-29PFO1029KBOS KLAX TJAYY BOATT HEARR MARBB HYLND HANAA ARNII GOATR AHPAH KELTI AGDOX OMRAK HOCKE BAE DBQ CAPPR JORDY TODDO OBH DVV DVC PEEWE EEEZY DUZIT LAKRR ZZYZX HAKMN SHTNR SMASH SALYY GLESN ANJLL CAANN BOYEL CRCUS5.9 hrs5.5 hrs119,848 lbKyle Rodgers
2018-09-09PFO744KIAD KBOS 1.6 hrs1.2 hrs30,386 lb-HIDDEN-